EmailTwitter


Observations de surface / France / LFBD (07510)

Régions: Québec | Canada | États-Unis | Europe | France | UK | Elsewhere
Station
Affichage
Infos & localisation pour LFBD (07510) | Aide pour décoder les METARs

Observations prises le 2017-05-30 à 05H00 UTC à BORDEAUX/MERIGNA, FR (LFBD)

Etat du ciel: couvert.

Température: 16.0 Celsius

Point de rosée: 15.0 Celsius

Humidité relative: 94%

Indice Humidex: 20.

Vents: Nord-nord-ouest à 9 km/h ou 5 noeuds.

Pression au niveau moyen de la mer: 101.80 kilopascals.

Visibilité horizontale: 6.21 milles terrestres ou 9.94 kilomètres.

Hauteur du plafond: 457 mètres ( 1500 pieds ).

Observation METAR:

LFBD 300500Z AUTO 34005KT 9999 FEW007 OVC015 16/15 Q1018 TEMPO 4000 -RA BKN007

BKN012=